Time;durP1;ratioP1;P1;durP2;ratioP2;P2;SDS_P1;SDS_P2;PMS_P1;PMS_P2;Temp;Humidity;BMP_temperature;BMP_pressure;BME280_temperature;BME280_humidity;BME280_pressure;Samples;Min_cycle;Max_cycle;Signal;HPM_P1;HPM_P2
2023/01/10 00:01:46;;;;;;;22.63;12.80;;;;;;;1.73;97.53;92710.44;5008829;28;20504;-39
2023/01/10 00:04:11;;;;;;;27.58;14.65;;;;;;;1.67;98.18;92721.38;5012797;28;20567;-40
2023/01/10 00:06:37;;;;;;;21.02;12.48;;;;;;;1.78;97.91;92715.06;5028719;28;20108;-40
2023/01/10 00:09:02;;;;;;;25.00;14.50;;;;;;;1.66;98.11;92714.47;5028161;28;20025;-40
2023/01/10 00:14:12;;;;;;;23.13;12.70;;;;;;;1.69;98.81;92680.06;5028088;28;20036;-40
2023/01/10 00:16:38;;;;;;;26.90;15.15;;;;;;;1.89;98.13;92704.81;5025450;28;20026;-39
2023/01/10 00:19:05;;;;;;;24.00;13.90;;;;;;;1.77;98.64;92692.59;5008562;28;20545;-40
2023/01/10 00:21:30;;;;;;;28.20;14.35;;;;;;;1.79;98.29;92675.75;5008523;28;20087;-40
2023/01/10 00:24:07;;;;;;;28.17;14.20;;;;;;;1.73;98.69;92678.53;5008352;28;20025;-40
2023/01/10 00:26:33;;;;;;;25.50;14.65;;;;;;;1.82;98.60;92675.44;5008765;28;20513;-40
2023/01/10 00:28:58;;;;;;;21.60;11.73;;;;;;;1.82;98.50;92661.84;5010572;28;20037;-40
2023/01/10 00:31:23;;;;;;;25.98;14.15;;;;;;;1.78;98.35;92680.44;5028084;28;20037;-40
2023/01/10 00:33:49;;;;;;;23.83;14.10;;;;;;;1.76;98.38;92669.34;5027631;28;20095;-40
2023/01/10 00:36:14;;;;;;;20.75;13.07;;;;;;;1.82;98.61;92661.84;5027894;28;20049;-40
2023/01/10 00:38:40;;;;;;;19.70;10.98;;;;;;;1.91;98.23;92674.38;5028159;28;20116;-40
2023/01/10 00:43:55;;;;;;;23.20;13.07;;;;;;;1.88;97.22;92665.25;5027830;28;20417;-40
2023/01/10 00:43:56;;;;;;;22.70;11.83;;;;;;;1.78;98.04;92645.06;5027884;28;20724;-40
2023/01/10 00:46:21;;;;;;;23.20;13.30;;;;;;;1.62;99.40;92648.72;5012538;28;20692;-40
2023/01/10 00:48:47;;;;;;;24.60;12.40;;;;;;;1.65;99.39;92642.25;5008310;28;20109;-40
2023/01/10 00:51:12;;;;;;;23.38;12.30;;;;;;;1.67;99.26;92645.19;5008104;28;20030;-40
2023/01/10 00:53:38;;;;;;;20.90;12.18;;;;;;;1.61;99.32;92660.09;5007933;28;20038;-40
2023/01/10 00:56:03;;;;;;;24.35;12.57;;;;;;;1.67;99.56;92660.78;5008109;28;20017;-40
2023/01/10 00:58:29;;;;;;;27.83;14.13;;;;;;;1.69;99.67;92658.31;5008122;28;20033;-40
2023/01/10 01:00:54;;;;;;;22.77;12.30;;;;;;;1.71;99.57;92661.25;5007821;28;20030;-40
2023/01/10 01:03:21;;;;;;;18.92;11.93;;;;;;;1.74;99.47;92669.13;5007951;28;20033;-40
2023/01/10 01:05:47;;;;;;;21.55;11.85;;;;;;;1.92;98.59;92654.06;5024395;28;20026;-40
2023/01/10 01:08:14;;;;;;;20.17;10.82;;;;;;;1.71;98.39;92636.75;5027785;28;20481;-40
2023/01/10 01:10:39;;;;;;;22.98;13.23;;;;;;;1.84;98.85;92653.91;5027755;28;20485;-40
2023/01/10 01:13:12;;;;;;;21.15;12.70;;;;;;;1.77;98.44;92640.16;5027465;28;20029;-40
2023/01/10 01:15:37;;;;;;;19.92;12.00;;;;;;;1.74;98.63;92614.69;5026042;28;20025;-39
2023/01/10 01:18:03;;;;;;;18.45;10.98;;;;;;;1.81;98.67;92605.94;5011797;28;20552;-40
2023/01/10 01:20:29;;;;;;;23.77;13.65;;;;;;;1.74;98.27;92600.34;5007739;28;20127;-40
2023/01/10 01:22:55;;;;;;;25.73;12.98;;;;;;;1.67;98.99;92598.22;5007350;28;20045;-39
2023/01/10 01:25:20;;;;;;;25.23;13.73;;;;;;;1.55;99.39;92594.88;5007437;28;20096;-40
2023/01/10 01:27:45;;;;;;;22.67;12.60;;;;;;;1.55;99.98;92597.59;5007822;28;20076;-40
2023/01/10 01:30:12;;;;;;;22.42;11.20;;;;;;;1.60;100.00;92591.38;5020171;28;20154;-40
2023/01/10 01:32:37;;;;;;;24.58;13.07;;;;;;;1.49;99.95;92586.75;5027327;28;20029;-40
2023/01/10 01:35:04;;;;;;;28.92;13.55;;;;;;;1.70;99.54;92587.03;5027147;28;20053;-40
2023/01/10 01:37:30;;;;;;;17.65;9.32;;;;;;;1.77;100.00;92578.31;5027327;28;20034;-40
2023/01/10 01:39:55;;;;;;;21.80;11.07;;;;;;;1.55;99.93;92589.44;5027706;28;20486;-40
2023/01/10 01:42:24;;;;;;;17.92;10.13;;;;;;;1.66;100.00;92583.13;5027619;28;20389;-39
2023/01/10 01:45:07;;;;;;;19.85;11.43;;;;;;;1.46;100.00;92578.91;5024287;28;20068;-40
2023/01/10 01:47:44;;;;;;;22.80;11.68;;;;;;;1.44;100.00;92568.53;5007690;28;20037;-40
2023/01/10 01:50:14;;;;;;;21.73;10.95;;;;;;;1.39;100.00;92577.47;5007478;28;20091;-40
2023/01/10 01:52:39;;;;;;;24.88;13.10;;;;;;;1.48;100.00;92579.13;5007651;28;20138;-40
2023/01/10 01:55:05;;;;;;;26.35;13.43;;;;;;;1.46;100.00;92574.19;5007330;28;20144;-40
2023/01/10 01:57:31;;;;;;;24.13;14.50;;;;;;;1.50;100.00;92585.53;5007560;28;20036;-40
2023/01/10 01:59:57;;;;;;;24.33;12.43;;;;;;;1.49;100.00;92578.59;5007640;28;20505;-40
2023/01/10 02:02:27;;;;;;;22.75;13.00;;;;;;;1.51;100.00;92587.00;5007735;28;20036;-40
2023/01/10 02:04:56;;;;;;;21.83;13.35;;;;;;;1.65;100.00;92592.53;5007379;28;20037;-40
2023/01/10 02:07:23;;;;;;;28.20;14.32;;;;;;;1.60;100.00;92590.63;5006132;28;20038;-40
2023/01/10 02:09:53;;;;;;;23.95;12.48;;;;;;;1.64;100.00;92586.38;5007198;28;20067;-40
2023/01/10 02:12:18;;;;;;;19.95;10.68;;;;;;;1.73;100.00;92563.50;5006517;28;20141;-40
2023/01/10 02:14:46;;;;;;;25.45;13.00;;;;;;;1.65;100.00;92566.06;5007001;28;20733;-40
2023/01/10 02:17:11;;;;;;;13.20;7.43;;;;;;;1.77;100.00;92570.13;5006014;28;20506;-39
2023/01/10 02:19:50;;;;;;;32.47;14.90;;;;;;;1.63;100.00;92576.72;5010463;28;20113;-40
2023/01/10 02:22:40;;;;;;;25.98;14.15;;;;;;;1.64;100.00;92564.59;5009446;28;20818;-40
2023/01/10 02:25:14;;;;;;;46.28;22.90;;;;;;;1.70;100.00;92564.53;5010524;28;20584;-40
2023/01/10 02:27:43;;;;;;;24.15;13.00;;;;;;;1.76;100.00;92560.50;5010329;28;20034;-40
2023/01/10 02:30:31;;;;;;;28.97;16.63;;;;;;;1.76;100.00;92544.16;5022028;28;20487;-40
2023/01/10 02:33:34;;;;;;;21.20;12.18;;;;;;;1.71;100.00;92534.06;5030517;28;20855;-40
2023/01/10 02:36:00;;;;;;;29.10;18.15;;;;;;;1.73;100.00;92528.13;5016368;28;20608;-40
2023/01/10 02:38:54;;;;;;;25.73;14.93;;;;;;;1.83;100.00;92540.13;5029889;28;20128;-40
2023/01/10 02:41:37;;;;;;;25.70;13.05;;;;;;;1.97;99.51;92522.63;5030072;28;20038;-40
2023/01/10 02:44:35;;;;;;;24.95;13.70;;;;;;;1.97;98.64;92506.28;5030058;28;20029;-40
2023/01/10 02:47:06;;;;;;;25.00;14.55;;;;;;;1.91;99.29;92502.91;5008867;28;20083;-40
2023/01/10 02:49:44;;;;;;;25.75;14.27;;;;;;;1.83;99.69;92505.47;5009869;28;20457;-40
2023/01/10 02:52:12;;;;;;;33.38;18.80;;;;;;;1.80;99.73;92495.63;5009791;28;20505;-40
2023/01/10 02:54:38;;;;;;;29.75;15.82;;;;;;;1.92;100.00;92507.09;5008947;28;20521;-40
2023/01/10 02:57:23;;;;;;;20.58;11.88;;;;;;;1.93;99.43;92500.38;5009978;28;20033;-40
2023/01/10 02:59:51;;;;;;;20.17;10.82;;;;;;;1.93;98.90;92514.75;5008682;28;20457;-40
2023/01/10 03:02:40;;;;;;;21.27;10.85;;;;;;;2.16;97.74;92504.28;5009683;28;20026;-40
2023/01/10 03:05:09;;;;;;;19.65;10.85;;;;;;;2.14;97.57;92512.22;5020868;28;20104;-40
2023/01/10 03:07:38;;;;;;;20.38;11.40;;;;;;;2.17;97.86;92516.63;5029589;28;20549;-40
2023/01/10 03:10:29;;;;;;;26.63;13.70;;;;;;;2.09;97.85;92530.13;5029457;28;20045;-40
2023/01/10 03:12:57;;;;;;;26.08;13.40;;;;;;;2.07;98.04;92529.16;5012035;28;20438;-39
2023/01/10 03:15:26;;;;;;;28.45;14.48;;;;;;;2.06;97.10;92519.50;5010221;28;20033;-40
2023/01/10 03:17:56;;;;;;;24.73;14.43;;;;;;;1.99;98.31;92522.84;5009357;28;20045;-40
2023/01/10 03:20:21;;;;;;;;;;;;;;;1.95;98.31;92525.84;5008373;28;20033;-40
2023/01/10 03:22:47;;;;;;;26.27;13.35;;;;;;;1.89;98.96;92530.63;5008279;28;19913;-40
2023/01/10 03:25:14;;;;;;;22.08;12.73;;;;;;;2.08;98.45;92538.81;5008499;28;20103;-40
2023/01/10 03:27:50;;;;;;;28.92;14.65;;;;;;;1.97;98.37;92522.63;5008514;28;20088;-39
2023/01/10 03:30:39;;;;;;;22.30;11.38;;;;;;;2.11;97.57;92524.88;5020630;28;20128;-40
2023/01/10 03:33:04;;;;;;;;;;;;;;;1.91;97.92;92525.41;5028494;28;20078;-39
2023/01/10 03:35:38;;;;;;;25.27;13.88;;;;;;;1.76;99.25;92530.56;5029125;28;19921;-40
2023/01/10 03:38:34;;;;;;;32.25;15.68;;;;;;;1.75;100.00;92536.53;5028104;28;20489;-40
2023/01/10 03:41:18;;;;;;;35.33;14.95;;;;;;;1.82;99.28;92530.50;5012557;28;20042;-40
2023/01/10 03:46:56;;;;;;;31.02;14.77;;;;;;;1.72;100.00;92559.31;5011455;28;20144;-40
2023/01/10 03:49:23;;;;;;;29.27;15.45;;;;;;;1.82;100.00;92542.09;5007663;28;20061;-40
2023/01/10 03:51:49;;;;;;;27.90;14.65;;;;;;;1.82;100.00;92544.09;5007573;28;20087;-40
2023/01/10 03:54:15;;;;;;;28.25;15.35;;;;;;;1.83;100.00;92534.69;5009080;28;20026;-39
2023/01/10 03:56:49;;;;;;;22.65;13.57;;;;;;;1.89;99.84;92530.63;5007712;28;20030;-40
2023/01/10 03:59:24;;;;;;;28.77;13.73;;;;;;;1.90;99.09;92521.22;5009044;28;20751;-40
2023/01/10 04:01:50;;;;;;;17.65;9.82;;;;;;;2.05;99.71;92518.06;5007458;28;20036;-40
2023/01/10 04:04:16;;;;;;;24.67;14.65;;;;;;;1.86;99.42;92509.16;5013727;28;20029;-40
2023/01/10 04:06:41;;;;;;;28.48;14.95;;;;;;;1.88;99.76;92507.41;5028691;28;20021;-40
2023/01/10 04:09:07;;;;;;;23.67;13.48;;;;;;;1.93;99.39;92492.97;5012793;28;20586;-40
2023/01/10 04:11:33;;;;;;;25.65;13.18;;;;;;;1.94;99.39;92501.88;5008434;28;20029;-40
2023/01/10 04:13:58;;;;;;;31.10;16.00;;;;;;;1.81;99.66;92490.91;5008293;28;20033;-40
2023/01/10 04:16:23;;;;;;;24.80;14.45;;;;;;;1.79;100.00;92474.38;5008491;28;20056;-40
2023/01/10 04:18:49;;;;;;;26.38;14.55;;;;;;;1.86;99.96;92465.63;5008383;28;20088;-40
2023/01/10 04:21:14;;;;;;;29.10;15.65;;;;;;;1.73;100.00;92468.28;5008338;28;20053;-40
2023/01/10 04:23:40;;;;;;;26.23;16.58;;;;;;;1.74;100.00;92450.69;5008295;28;20254;-40
2023/01/10 04:26:05;;;;;;;27.42;13.77;;;;;;;1.85;100.00;92443.09;5008366;28;20022;-39
2023/01/10 04:28:31;;;;;;;29.17;15.18;;;;;;;1.86;100.00;92433.69;5008406;28;20026;-39
2023/01/10 04:30:56;;;;;;;24.98;12.68;;;;;;;1.84;100.00;92419.84;5026048;28;20029;-40
2023/01/10 04:33:21;;;;;;;27.50;14.93;;;;;;;1.70;100.00;92412.91;5027654;28;20033;-39
2023/01/10 04:35:50;;;;;;;35.72;17.50;;;;;;;1.58;100.00;92408.13;5027561;28;20057;-40
2023/01/10 04:38:16;;;;;;;29.50;14.60;;;;;;;1.47;100.00;92401.59;5027992;28;20059;-40
2023/01/10 04:40:42;;;;;;;26.80;12.55;;;;;;;1.43;100.00;92394.97;5026856;28;20030;-40
2023/01/10 04:43:09;;;;;;;24.88;13.52;;;;;;;1.40;100.00;92399.47;5027408;28;20025;-39
2023/01/10 04:45:35;;;;;;;25.77;13.93;;;;;;;1.47;100.00;92409.03;5018979;28;20800;-39
2023/01/10 04:48:00;;;;;;;19.20;10.10;;;;;;;1.52;100.00;92430.69;5008300;28;20053;-39
2023/01/10 04:50:26;;;;;;;31.73;14.73;;;;;;;1.37;100.00;92449.44;5007817;28;20739;-40
2023/01/10 04:52:52;;;;;;;37.00;15.85;;;;;;;1.39;100.00;92465.25;5007819;28;20052;-40
2023/01/10 04:55:17;;;;;;;28.77;15.05;;;;;;;1.44;100.00;92478.78;5007848;28;20568;-40
2023/01/10 04:57:43;;;;;;;27.60;14.65;;;;;;;1.45;100.00;92493.84;5007909;28;20038;-40
2023/01/10 05:00:09;;;;;;;29.40;13.65;;;;;;;1.49;100.00;92504.44;5007372;28;20086;-40
2023/01/10 05:02:41;;;;;;;38.10;17.55;;;;;;;1.57;100.00;92510.78;5007395;28;20029;-40
2023/01/10 05:05:07;;;;;;;31.67;16.13;;;;;;;1.62;100.00;92533.72;5019290;28;20120;-40
2023/01/10 05:07:32;;;;;;;31.40;16.50;;;;;;;1.69;100.00;92527.69;5027575;28;20087;-40
2023/01/10 05:09:58;;;;;;;33.75;18.65;;;;;;;1.87;100.00;92535.13;5027131;28;20554;-40
2023/01/10 05:12:23;;;;;;;30.33;16.88;;;;;;;1.88;100.00;92534.63;5027258;28;20032;-40
2023/01/10 05:14:49;;;;;;;29.50;15.65;;;;;;;1.92;100.00;92537.03;5027127;28;20032;-40
2023/01/10 05:17:14;;;;;;;32.03;17.85;;;;;;;1.97;100.00;92536.94;5019309;28;20033;-40
2023/01/10 05:19:40;;;;;;;29.67;14.70;;;;;;;2.03;100.00;92526.00;5007558;28;20026;-40
2023/01/10 05:22:05;;;;;;;37.58;16.50;;;;;;;2.09;100.00;92524.69;5007177;28;20045;-40
2023/01/10 05:24:30;;;;;;;29.45;15.70;;;;;;;2.02;100.00;92511.66;5007190;28;20022;-40
2023/01/10 05:26:56;;;;;;;25.35;12.32;;;;;;;2.16;100.00;92499.56;5006218;28;20034;-40
2023/01/10 05:29:21;;;;;;;31.00;18.42;;;;;;;2.09;100.00;92486.56;5012701;28;20030;-40
2023/01/10 05:31:50;;;;;;;30.30;18.02;;;;;;;2.14;99.91;92477.56;5026998;28;20029;-40
2023/01/10 05:34:15;;;;;;;30.08;15.85;;;;;;;2.00;100.00;92456.25;5026698;28;20037;-40
2023/01/10 05:36:41;;;;;;;33.00;19.58;;;;;;;1.92;100.00;92439.06;5027321;28;20038;-40
2023/01/10 05:39:06;;;;;;;33.67;16.83;;;;;;;1.99;100.00;92422.13;5027581;28;20102;-40
2023/01/10 05:41:32;;;;;;;32.45;15.73;;;;;;;1.85;100.00;92423.31;5026891;28;20080;-40
2023/01/10 05:43:57;;;;;;;27.08;14.85;;;;;;;1.90;100.00;92423.25;5026836;28;20025;-40
2023/01/10 05:46:22;;;;;;;29.92;15.93;;;;;;;1.81;100.00;92423.63;5011484;28;20080;-40
2023/01/10 05:48:48;;;;;;;32.80;16.23;;;;;;;1.71;100.00;92435.41;5007586;28;20061;-40
2023/01/10 05:51:13;;;;;;;38.92;17.65;;;;;;;1.63;100.00;92437.22;5007456;28;20465;-40
2023/01/10 05:53:39;;;;;;;31.60;16.67;;;;;;;1.77;100.00;92431.34;5011085;28;20029;-40
2023/01/10 05:56:06;;;;;;;27.55;14.00;;;;;;;1.76;100.00;92423.69;5010827;28;20037;-40
2023/01/10 05:58:32;;;;;;;31.85;16.20;;;;;;;1.72;100.00;92420.53;5010736;28;20568;-40
2023/01/10 06:00:57;;;;;;;26.05;13.05;;;;;;;1.83;100.00;92423.84;5010764;28;20026;-40
2023/01/10 06:03:25;;;;;;;32.63;16.17;;;;;;;1.71;100.00;92436.13;5010830;28;20022;-40
2023/01/10 06:05:51;;;;;;;30.27;16.23;;;;;;;1.72;100.00;92437.59;5028020;28;20025;-40
2023/01/10 06:08:16;;;;;;;24.27;14.38;;;;;;;1.86;100.00;92441.13;5030894;28;20471;-40
2023/01/10 06:10:42;;;;;;;29.25;14.93;;;;;;;1.88;100.00;92438.63;5030320;28;20036;-40
2023/01/10 06:13:08;;;;;;;25.45;13.95;;;;;;;1.97;100.00;92444.41;5030196;28;20425;-40
2023/01/10 06:15:34;;;;;;;30.33;15.32;;;;;;;2.09;100.00;92443.00;5030592;28;20051;-40
2023/01/10 06:18:00;;;;;;;27.75;13.73;;;;;;;2.09;100.00;92450.44;5015708;28;20045;-40
2023/01/10 06:20:25;;;;;;;24.00;12.88;;;;;;;2.16;100.00;92453.28;5010502;28;20038;-40
2023/01/10 06:22:51;;;;;;;29.85;14.05;;;;;;;2.23;100.00;92468.28;5010686;28;20030;-40
2023/01/10 06:25:16;;;;;;;27.25;15.43;;;;;;;2.28;100.00;92475.63;5010333;28;20038;-40
2023/01/10 06:27:42;;;;;;;30.77;15.88;;;;;;;2.36;100.00;92484.66;5010367;28;20506;-40
2023/01/10 06:30:10;;;;;;;28.48;15.15;;;;;;;2.49;100.00;92473.78;5022094;28;20700;-40
2023/01/10 06:32:35;;;;;;;23.25;14.20;;;;;;;2.51;100.00;92486.91;5029924;28;20413;-40
2023/01/10 06:35:01;;;;;;;21.35;13.18;;;;;;;2.58;100.00;92499.94;5030105;28;20061;-40
2023/01/10 06:37:26;;;;;;;23.75;14.73;;;;;;;2.60;100.00;92498.13;5030321;28;20030;-40
2023/01/10 06:39:52;;;;;;;27.10;14.90;;;;;;;2.56;100.00;92497.72;5030245;28;20734;-40
2023/01/10 06:42:17;;;;;;;23.05;14.48;;;;;;;2.77;100.00;92481.53;5030183;28;20516;-40
2023/01/10 06:44:43;;;;;;;26.23;14.35;;;;;;;2.60;100.00;92475.63;5027671;28;20029;-40
2023/01/10 06:47:08;;;;;;;25.17;14.85;;;;;;;2.61;100.00;92483.25;5010170;28;20041;-40
2023/01/10 06:49:34;;;;;;;26.92;15.98;;;;;;;2.66;100.00;92468.06;5010025;28;20034;-40
2023/01/10 06:51:59;;;;;;;27.30;15.63;;;;;;;2.66;100.00;92465.34;5009692;28;20036;-40
2023/01/10 06:54:24;;;;;;;30.75;15.35;;;;;;;2.65;100.00;92439.34;5010085;28;20022;-40
2023/01/10 06:56:50;;;;;;;26.90;14.52;;;;;;;2.68;100.00;92447.22;5009861;28;20029;-40
2023/01/10 06:59:15;;;;;;;27.05;14.68;;;;;;;2.76;100.00;92450.06;5009894;28;20813;-40
2023/01/10 07:01:41;;;;;;;28.60;16.15;;;;;;;2.74;100.00;92445.13;5009509;28;20034;-40
2023/01/10 07:04:06;;;;;;;31.58;16.45;;;;;;;2.58;100.00;92435.25;5012714;28;20029;-40
2023/01/10 07:06:38;;;;;;;25.48;15.60;;;;;;;2.58;100.00;92416.19;5029477;28;20041;-40
2023/01/10 07:09:05;;;;;;;28.92;15.98;;;;;;;2.63;100.00;92431.69;5029562;28;20064;-40
2023/01/10 07:11:30;;;;;;;25.60;14.15;;;;;;;2.67;100.00;92437.56;5029093;28;20040;-40
2023/01/10 07:13:56;;;;;;;27.27;15.00;;;;;;;2.82;100.00;92437.78;5028913;28;20033;-40
2023/01/10 07:16:22;;;;;;;22.85;13.23;;;;;;;2.89;100.00;92441.88;5028180;28;20039;-40
2023/01/10 07:18:47;;;;;;;26.00;15.30;;;;;;;2.84;100.00;92446.19;5009131;28;20061;-40
2023/01/10 07:21:13;;;;;;;29.67;15.25;;;;;;;2.90;100.00;92449.53;5009534;28;20168;-40
2023/01/10 07:23:38;;;;;;;24.15;14.27;;;;;;;2.94;100.00;92457.41;5009214;28;20022;-40
2023/01/10 07:26:06;;;;;;;29.00;16.05;;;;;;;3.16;100.00;92465.19;5009041;28;20124;-40
2023/01/10 07:28:33;;;;;;;26.13;14.70;;;;;;;3.06;100.00;92466.84;5009003;28;20420;-40
2023/01/10 07:31:00;;;;;;;33.00;15.40;;;;;;;3.09;100.00;92468.53;5009370;28;20044;-40
2023/01/10 07:33:26;;;;;;;41.92;23.63;;;;;;;3.11;100.00;92473.47;5008810;28;20041;-40
2023/01/10 07:35:51;;;;;;;34.63;20.52;;;;;;;3.11;100.00;92471.47;5008744;28;20064;-40
2023/01/10 07:38:17;;;;;;;34.42;20.15;;;;;;;3.12;100.00;92462.03;5009085;28;20041;-40
2023/01/10 07:40:43;;;;;;;33.78;18.95;;;;;;;3.16;100.00;92462.47;5009027;28;20413;-40
2023/01/10 07:43:08;;;;;;;28.80;16.90;;;;;;;3.18;100.00;92465.41;5008921;28;20109;-40
2023/01/10 07:45:34;;;;;;;22.95;14.80;;;;;;;3.37;100.00;92462.53;5008493;28;20180;-40
2023/01/10 07:48:01;;;;;;;31.88;18.55;;;;;;;3.29;100.00;92467.88;5008842;28;20032;-40
2023/01/10 07:50:29;;;;;;;35.80;18.83;;;;;;;3.17;100.00;92465.91;5009088;28;20423;-40
2023/01/10 07:52:55;;;;;;;31.92;19.23;;;;;;;3.19;100.00;92468.84;5008711;28;20113;-40
2023/01/10 07:55:21;;;;;;;35.60;19.88;;;;;;;3.17;100.00;92474.81;5008841;28;20105;-40
2023/01/10 07:57:48;;;;;;;31.13;18.42;;;;;;;3.19;100.00;92475.03;5008465;28;20033;-40
2023/01/10 08:00:14;;;;;;;36.35;21.20;;;;;;;3.27;100.00;92475.16;5008696;28;20064;-40
2023/01/10 08:02:40;;;;;;;26.75;16.67;;;;;;;3.30;100.00;92466.66;5008512;28;20144;-40
2023/01/10 08:05:06;;;;;;;37.42;20.20;;;;;;;3.12;100.00;92459.28;5020337;28;20040;-40
2023/01/10 08:07:31;;;;;;;21.10;12.60;;;;;;;3.21;100.00;92469.03;5028397;28;20187;-40
2023/01/10 08:09:57;;;;;;;24.80;14.82;;;;;;;3.25;100.00;92458.59;5028092;28;20066;-40
2023/01/10 08:12:26;;;;;;;25.60;14.95;;;;;;;3.41;100.00;92450.06;5028263;28;20036;-40
2023/01/10 08:14:51;;;;;;;22.02;13.90;;;;;;;3.41;100.00;92446.59;5027245;28;20029;-40
2023/01/10 08:17:17;;;;;;;27.65;16.23;;;;;;;3.45;100.00;92439.56;5019908;28;20037;-40
2023/01/10 08:19:43;;;;;;;28.05;17.25;;;;;;;3.47;100.00;92447.22;5008203;28;20516;-40
2023/01/10 08:22:08;;;;;;;31.92;17.20;;;;;;;3.47;100.00;92442.50;5008597;28;20153;-40
2023/01/10 08:24:34;;;;;;;22.08;14.63;;;;;;;3.50;100.00;92443.44;5008103;28;20131;-40
2023/01/10 08:27:00;;;;;;;40.40;24.73;;;;;;;3.53;100.00;92436.94;5008322;28;20049;-40
2023/01/10 08:29:26;;;;;;;27.67;17.23;;;;;;;3.54;100.00;92432.94;5014273;28;20026;-40
2023/01/10 08:31:52;;;;;;;30.63;19.42;;;;;;;3.65;100.00;92438.91;5028177;28;20715;-40
2023/01/10 08:34:17;;;;;;;36.83;23.05;;;;;;;3.68;100.00;92439.84;5027782;28;20029;-40
2023/01/10 08:36:43;;;;;;;30.70;19.30;;;;;;;3.69;100.00;92428.38;5027507;28;20052;-40
2023/01/10 08:39:08;;;;;;;32.25;20.88;;;;;;;3.67;100.00;92430.91;5027999;28;20025;-40
2023/01/10 08:41:34;;;;;;;27.55;17.42;;;;;;;3.58;100.00;92427.88;5027740;28;20409;-40
2023/01/10 08:43:59;;;;;;;27.10;16.30;;;;;;;3.64;100.00;92428.50;5027441;28;20025;-40
2023/01/10 08:46:25;;;;;;;29.58;18.60;;;;;;;3.49;100.00;92423.59;5011976;28;20033;-40
2023/01/10 08:48:50;;;;;;;45.38;26.80;;;;;;;3.51;100.00;92414.91;5007848;28;20414;-40
2023/01/10 08:51:16;;;;;;;38.08;23.27;;;;;;;3.54;100.00;92406.38;5008035;28;20026;-40
2023/01/10 08:53:42;;;;;;;30.63;18.60;;;;;;;3.56;100.00;92397.66;5007775;28;20049;-40
2023/01/10 08:56:08;;;;;;;30.45;19.35;;;;;;;3.65;100.00;92402.66;5007770;28;20704;-40
2023/01/10 08:58:34;;;;;;;48.35;26.75;;;;;;;3.57;100.00;92402.56;5007497;28;20034;-40
2023/01/10 09:01:03;;;;;;;34.33;20.33;;;;;;;3.48;100.00;92396.84;5007872;28;20030;-41
2023/01/10 09:03:28;;;;;;;;;;;;;;;3.56;100.00;92387.47;5008141;28;20036;-40
2023/01/10 09:05:53;;;;;;;31.17;19.95;;;;;;;3.70;100.00;92390.91;5025669;28;19913;-41
2023/01/10 09:08:30;;;;;;;24.92;16.05;;;;;;;3.78;100.00;92384.25;5027550;28;20516;-40
2023/01/10 09:10:58;;;;;;;33.60;19.83;;;;;;;3.76;100.00;92383.31;5027210;28;20025;-40
2023/01/10 09:13:24;;;;;;;36.73;23.93;;;;;;;3.63;100.00;92386.09;5027148;28;20021;-40
2023/01/10 09:15:50;;;;;;;32.55;23.10;;;;;;;3.72;100.00;92363.81;5027171;28;20045;-40
2023/01/10 09:18:15;;;;;;;29.02;20.90;;;;;;;3.65;100.00;92359.00;5011034;28;20026;-40
2023/01/10 09:20:42;;;;;;;27.15;16.85;;;;;;;3.70;100.00;92367.06;5007323;28;20029;-40
2023/01/10 09:23:16;;;;;;;29.13;17.50;;;;;;;3.77;100.00;92362.94;5007268;28;20025;-40
2023/01/10 09:25:42;;;;;;;24.70;16.05;;;;;;;3.80;100.00;92354.44;5007501;28;20048;-40
2023/01/10 09:28:08;;;;;;;27.30;17.15;;;;;;;3.81;100.00;92361.34;5010919;28;20035;-40
2023/01/10 09:30:33;;;;;;;25.27;16.52;;;;;;;3.79;100.00;92346.75;5026397;28;20059;-40
2023/01/10 09:32:59;;;;;;;29.95;18.27;;;;;;;3.90;100.00;92346.50;5031033;28;20022;-41
2023/01/10 09:35:26;;;;;;;36.40;22.05;;;;;;;3.68;100.00;92336.13;5030591;28;20046;-40
2023/01/10 09:38:02;;;;;;;43.15;26.42;;;;;;;3.53;100.00;92328.50;5031177;28;20592;-40
2023/01/10 09:40:27;;;;;;;34.85;20.80;;;;;;;3.57;100.00;92317.97;5030895;28;20104;-40
2023/01/10 09:42:58;;;;;;;118.57;63.40;;;;;;;3.58;100.00;92308.53;5030884;28;20171;-40
2023/01/10 09:45:45;;;;;;;103.82;56.30;;;;;;;3.51;100.00;92306.47;5023345;28;20025;-40
2023/01/10 09:48:30;;;;;;;81.28;50.85;;;;;;;3.62;100.00;92300.00;5010648;28;20080;-40
2023/01/10 09:51:16;;;;;;;47.95;29.17;;;;;;;3.64;100.00;92294.75;5011799;28;20101;-40
2023/01/10 09:53:42;;;;;;;42.05;25.63;;;;;;;3.87;100.00;92287.50;5011444;28;20038;-40
2023/01/10 09:56:08;;;;;;;29.33;19.90;;;;;;;3.93;100.00;92274.44;5010835;28;20736;-40
2023/01/10 09:58:36;;;;;;;28.25;19.75;;;;;;;3.98;100.00;92278.31;5010342;28;20505;-40
2023/01/10 10:01:16;;;;;;;24.67;17.17;;;;;;;4.02;100.00;92268.53;5011649;28;20025;-40
2023/01/10 10:03:53;;;;;;;41.35;18.60;;;;;;;4.14;100.00;92268.94;5010712;28;20044;-40
2023/01/10 10:06:18;;;;;;;27.60;15.77;;;;;;;4.01;100.00;92261.56;5010247;28;20108;-40
2023/01/10 10:08:45;;;;;;;24.13;16.88;;;;;;;4.07;100.00;92253.97;5010560;28;20030;-40
2023/01/10 10:11:26;;;;;;;12.90;9.98;;;;;;;3.96;100.00;92251.53;5011508;28;20032;-40
2023/01/10 10:14:21;;;;;;;17.80;12.82;;;;;;;4.11;100.00;92253.66;5011588;28;20025;-40
2023/01/10 10:17:11;;;;;;;17.73;11.93;;;;;;;4.27;100.00;92249.72;5010184;28;20088;-40
2023/01/10 10:20:00;;;;;;;26.73;12.48;;;;;;;4.17;100.00;92238.59;5010202;28;20065;-40
2023/01/10 10:22:36;;;;;;;;;;;;;;;4.26;100.00;92235.38;5012112;28;20100;-40
2023/01/10 10:25:04;;;;;;;13.32;9.50;;;;;;;4.43;100.00;92241.09;5009908;28;19910;-40
2023/01/10 10:27:51;;;;;;;13.97;10.87;;;;;;;4.41;100.00;92235.44;5011483;28;20025;-41
2023/01/10 10:30:24;;;;;;;14.65;10.55;;;;;;;4.52;100.00;92231.69;5024045;28;20432;-40
2023/01/10 10:33:21;;;;;;;13.82;10.48;;;;;;;4.63;100.00;92225.16;5029788;28;20449;-40
2023/01/10 10:36:01;;;;;;;15.13;11.70;;;;;;;4.73;100.00;92228.84;5009782;28;20056;-40
2023/01/10 10:38:30;;;;;;;22.00;12.98;;;;;;;4.87;100.00;92222.72;5029969;28;20033;-40
2023/01/10 10:40:57;;;;;;;18.33;13.02;;;;;;;4.98;100.00;92219.63;5030546;28;20076;-40
2023/01/10 10:43:29;;;;;;;16.00;11.27;;;;;;;4.99;100.00;92201.97;5029346;28;20053;-40
2023/01/10 10:46:08;;;;;;;10.32;8.27;;;;;;;5.01;100.00;92215.84;5017361;28;20033;-40
2023/01/10 10:48:56;;;;;;;8.77;6.38;;;;;;;4.92;100.00;92210.13;5010221;28;20096;-40
2023/01/10 10:51:37;;;;;;;7.45;6.63;;;;;;;4.77;100.00;92212.81;5009535;28;20026;-40
2023/01/10 10:54:05;;;;;;;9.80;7.43;;;;;;;4.89;100.00;92203.03;5009628;28;20030;-40
2023/01/10 10:56:30;;;;;;;12.55;9.02;;;;;;;4.88;100.00;92207.03;5010008;28;20117;-41
2023/01/10 10:58:58;;;;;;;30.83;15.43;;;;;;;4.80;100.00;92217.94;5008562;28;20109;-40
2023/01/10 11:01:23;;;;;;;16.38;11.40;;;;;;;4.91;100.00;92216.91;5009537;28;20029;-40
2023/01/10 11:03:51;;;;;;;10.85;6.63;;;;;;;4.99;100.00;92204.69;5010445;28;20047;-40
2023/01/10 11:06:18;;;;;;;13.60;8.45;;;;;;;4.90;100.00;92199.00;5028453;28;20029;-40
2023/01/10 11:08:46;;;;;;;11.25;7.70;;;;;;;5.00;100.00;92197.22;5029363;28;20113;-40
2023/01/10 11:11:21;;;;;;;8.07;5.80;;;;;;;5.00;100.00;92192.47;5027855;28;20687;-40
2023/01/10 11:14:07;;;;;;;5.95;3.78;;;;;;;4.79;100.00;92197.34;5027736;28;20029;-40
2023/01/10 11:16:42;;;;;;;7.13;4.88;;;;;;;5.02;100.00;92192.69;5026425;28;20033;-40
2023/01/10 11:19:17;;;;;;;6.45;5.07;;;;;;;5.06;100.00;92197.78;5009247;28;20034;-40
2023/01/10 11:21:49;;;;;;;5.75;4.45;;;;;;;5.15;100.00;92198.00;5009379;28;20026;-40
2023/01/10 11:24:22;;;;;;;5.85;5.05;;;;;;;5.13;100.00;92199.81;5007916;28;20033;-40
2023/01/10 11:26:48;;;;;;;4.53;4.03;;;;;;;5.13;100.00;92197.09;5007949;28;20042;-40
2023/01/10 11:29:23;;;;;;;4.40;3.38;;;;;;;5.03;100.00;92196.88;5012155;28;20089;-40
2023/01/10 11:31:49;;;;;;;6.90;3.35;;;;;;;5.04;100.00;92194.88;5027314;28;20100;-40
2023/01/10 11:34:18;;;;;;;6.80;5.32;;;;;;;4.98;100.00;92200.50;5027311;28;20104;-40
2023/01/10 11:36:55;;;;;;;6.10;5.50;;;;;;;5.02;100.00;92200.16;5028633;28;20116;-41